createdAt,value
2018-10-19T00:00:25.341Z,6.10
2018-10-19T00:02:54.474Z,6.10
2018-10-19T00:05:23.103Z,6.00
2018-10-19T00:07:51.756Z,6.00
2018-10-19T00:10:20.434Z,6.00
2018-10-19T00:12:49.095Z,6.00
2018-10-19T00:15:17.752Z,6.00
2018-10-19T00:17:46.413Z,6.00
2018-10-19T00:20:15.042Z,6.00
2018-10-19T00:22:43.708Z,5.90
2018-10-19T00:25:12.330Z,5.90
2018-10-19T00:27:41.029Z,6.00
2018-10-19T00:30:10.471Z,5.90
2018-10-19T00:32:39.171Z,5.90
2018-10-19T00:35:08.882Z,5.90
2018-10-19T00:37:37.617Z,5.90
2018-10-19T00:40:06.482Z,5.90
2018-10-19T00:42:35.145Z,5.90
2018-10-19T00:45:03.848Z,5.90
2018-10-19T00:47:32.542Z,5.90
2018-10-19T00:50:01.177Z,5.80
2018-10-19T00:52:29.802Z,5.80
2018-10-19T00:54:58.484Z,5.80
2018-10-19T00:57:27.099Z,5.80
2018-10-19T00:59:55.753Z,5.70
2018-10-19T01:02:24.423Z,5.70
2018-10-19T01:04:53.093Z,5.70
2018-10-19T01:07:21.813Z,5.70
2018-10-19T01:09:50.474Z,5.60
2018-10-19T01:12:19.092Z,5.60
2018-10-19T01:14:47.738Z,5.50
2018-10-19T01:17:16.437Z,5.50
2018-10-19T01:19:45.080Z,5.40
2018-10-19T01:22:13.700Z,5.40
2018-10-19T01:24:42.356Z,5.40
2018-10-19T01:27:11.024Z,5.40
2018-10-19T01:29:39.788Z,5.40
2018-10-19T01:32:08.453Z,5.30
2018-10-19T01:34:37.125Z,5.30
2018-10-19T01:37:05.869Z,5.30
2018-10-19T01:39:34.540Z,5.40
2018-10-19T01:42:03.242Z,5.40
2018-10-19T01:44:32.802Z,5.40
2018-10-19T01:47:01.451Z,5.40
2018-10-19T01:49:30.201Z,5.40
2018-10-19T01:51:58.841Z,5.30
2018-10-19T01:54:27.548Z,5.30
2018-10-19T01:56:56.161Z,5.30
2018-10-19T01:59:24.792Z,5.30
2018-10-19T02:01:53.443Z,5.30
2018-10-19T02:04:22.097Z,5.30
2018-10-19T02:06:50.745Z,5.30
2018-10-19T02:09:19.375Z,5.30
2018-10-19T02:11:48.049Z,5.30
2018-10-19T02:14:16.686Z,5.20
2018-10-19T02:16:45.437Z,5.20
2018-10-19T02:19:14.106Z,5.20
2018-10-19T02:21:42.739Z,5.20
2018-10-19T02:24:11.378Z,5.30
2018-10-19T02:26:40.056Z,5.30
2018-10-19T02:29:08.987Z,5.40
2018-10-19T02:31:37.530Z,5.50
2018-10-19T02:34:06.562Z,5.60
2018-10-19T02:36:35.313Z,5.90
2018-10-19T02:39:05.031Z,6.20
2018-10-19T02:41:33.775Z,6.40
2018-10-19T02:44:02.445Z,6.50
2018-10-19T02:46:31.065Z,6.70
2018-10-19T02:48:59.727Z,6.80
2018-10-19T02:51:28.397Z,6.90
2018-10-19T02:53:57.017Z,7.00
2018-10-19T02:56:25.710Z,7.10
2018-10-19T02:58:54.419Z,7.10
2018-10-19T03:01:23.047Z,7.20
2018-10-19T03:03:51.747Z,7.30
2018-10-19T03:06:20.390Z,7.30
2018-10-19T03:08:49.036Z,7.30
2018-10-19T03:11:17.800Z,7.30
2018-10-19T03:13:46.426Z,7.30
2018-10-19T03:16:15.122Z,7.20
2018-10-19T03:18:43.744Z,7.30
2018-10-19T03:21:12.421Z,7.20
2018-10-19T03:23:41.042Z,7.20
2018-10-19T03:26:09.829Z,7.20
2018-10-19T03:28:38.485Z,7.20
2018-10-19T03:31:07.258Z,7.10
2018-10-19T03:33:35.881Z,7.10
2018-10-19T03:36:04.661Z,7.10
2018-10-19T03:38:33.341Z,7.10
2018-10-19T03:41:02.058Z,7.00
2018-10-19T03:43:30.732Z,7.00
2018-10-19T03:45:59.421Z,7.00
2018-10-19T03:48:30.291Z,6.90
2018-10-19T03:50:58.964Z,6.90
2018-10-19T03:53:27.571Z,6.90
2018-10-19T03:55:56.233Z,6.80
2018-10-19T03:58:24.867Z,6.80
2018-10-19T04:00:53.519Z,6.80
2018-10-19T04:03:22.265Z,6.70
2018-10-19T04:05:50.912Z,6.70
2018-10-19T04:08:19.524Z,6.70
2018-10-19T04:10:48.151Z,6.60
2018-10-19T04:13:16.857Z,6.60
2018-10-19T04:15:45.614Z,6.60
2018-10-19T04:18:14.280Z,6.60
2018-10-19T04:20:42.950Z,6.60
2018-10-19T04:23:11.662Z,6.60
2018-10-19T04:25:40.556Z,6.60
2018-10-19T04:28:09.265Z,6.60
2018-10-19T04:30:38.224Z,6.50
2018-10-19T04:33:07.044Z,6.50
2018-10-19T04:35:35.670Z,6.50
2018-10-19T04:38:04.432Z,6.60
2018-10-19T04:40:33.060Z,6.60
2018-10-19T04:43:01.842Z,6.60
2018-10-19T04:45:30.526Z,6.70
2018-10-19T04:47:59.161Z,6.70
2018-10-19T04:50:27.882Z,6.80
2018-10-19T04:52:56.584Z,6.80
2018-10-19T04:55:25.202Z,6.80
2018-10-19T04:57:53.894Z,6.80
2018-10-19T05:00:22.649Z,6.90
2018-10-19T05:02:51.872Z,6.80
2018-10-19T05:05:21.027Z,6.90
2018-10-19T05:07:49.545Z,6.90
2018-10-19T05:10:18.157Z,6.80
2018-10-19T05:12:46.810Z,6.90
2018-10-19T05:15:15.452Z,6.80
2018-10-19T05:17:44.142Z,6.80
2018-10-19T05:20:13.476Z,6.80
2018-10-19T05:22:42.035Z,6.70
2018-10-19T05:25:11.877Z,6.70
2018-10-19T05:27:40.554Z,6.60
2018-10-19T05:30:11.330Z,6.60
2018-10-19T05:32:40.727Z,6.50
2018-10-19T05:35:09.501Z,6.50
2018-10-19T05:37:39.202Z,6.50
2018-10-19T05:40:09.333Z,6.40
2018-10-19T05:42:38.305Z,6.30
2018-10-19T05:45:10.283Z,6.30
2018-10-19T05:47:38.999Z,6.30
2018-10-19T05:50:08.737Z,6.20
2018-10-19T05:52:38.102Z,6.20
2018-10-19T05:55:06.913Z,6.10
2018-10-19T05:57:35.958Z,6.10
2018-10-19T06:00:05.109Z,6.10
2018-10-19T06:02:33.825Z,6.10
2018-10-19T06:05:02.742Z,6.00
2018-10-19T06:07:31.368Z,6.00
2018-10-19T06:10:00.086Z,6.00
2018-10-19T06:12:28.749Z,5.90
2018-10-19T06:14:57.361Z,5.90
2018-10-19T06:17:26.045Z,5.90
2018-10-19T06:19:54.722Z,5.90
2018-10-19T06:22:23.331Z,5.90
2018-10-19T06:24:52.008Z,5.90
2018-10-19T06:27:20.655Z,5.90
2018-10-19T06:29:49.414Z,6.00
2018-10-19T06:32:18.103Z,6.00
2018-10-19T06:34:46.721Z,6.00
2018-10-19T06:37:15.409Z,6.10
2018-10-19T06:39:44.065Z,6.10
2018-10-19T06:42:12.740Z,6.10
2018-10-19T06:44:41.450Z,6.20
2018-10-19T06:47:10.128Z,6.30
2018-10-19T06:49:38.725Z,6.30
2018-10-19T06:52:07.455Z,6.30
2018-10-19T06:54:36.088Z,6.40
2018-10-19T06:57:05.134Z,6.40
2018-10-19T06:59:33.879Z,6.40
2018-10-19T07:02:02.529Z,6.50
2018-10-19T07:04:31.197Z,6.50
2018-10-19T07:06:59.876Z,6.50
2018-10-19T07:09:28.702Z,6.50
2018-10-19T07:11:57.367Z,6.60
2018-10-19T07:14:26.020Z,6.60
2018-10-19T07:16:54.759Z,6.70
2018-10-19T07:19:23.401Z,6.70
2018-10-19T07:21:52.139Z,6.70
2018-10-19T07:24:20.740Z,6.80
2018-10-19T07:26:49.344Z,6.80
2018-10-19T07:29:18.201Z,6.90
2018-10-19T07:31:46.760Z,6.90
2018-10-19T07:34:15.459Z,7.00
2018-10-19T07:36:44.057Z,7.00
2018-10-19T07:39:12.699Z,7.10
2018-10-19T07:41:41.333Z,7.20
2018-10-19T07:44:10.182Z,7.20
2018-10-19T07:46:38.828Z,7.30
2018-10-19T07:49:07.483Z,7.30
2018-10-19T07:51:36.132Z,7.40
2018-10-19T07:54:04.979Z,7.50
2018-10-19T07:56:33.605Z,7.50
2018-10-19T07:59:02.253Z,7.60
2018-10-19T08:01:30.931Z,7.70
2018-10-19T08:03:59.638Z,7.80
2018-10-19T08:06:28.275Z,7.80
2018-10-19T08:08:56.935Z,7.90
2018-10-19T08:11:25.589Z,8.00
2018-10-19T08:13:54.188Z,8.10
2018-10-19T08:16:22.861Z,8.20
2018-10-19T08:18:51.518Z,8.20
2018-10-19T08:21:20.211Z,8.30
2018-10-19T08:23:48.841Z,8.40
2018-10-19T08:26:17.584Z,8.50
2018-10-19T08:28:46.267Z,8.50
2018-10-19T08:31:14.944Z,8.70
2018-10-19T08:33:43.636Z,8.80
2018-10-19T08:36:12.268Z,8.90
2018-10-19T08:38:40.961Z,9.00
2018-10-19T08:41:09.687Z,9.10
2018-10-19T08:43:38.368Z,9.20
2018-10-19T08:46:12.175Z,9.20
2018-10-19T08:48:40.820Z,9.30
2018-10-19T08:51:09.784Z,9.40
2018-10-19T08:53:38.571Z,9.50
2018-10-19T08:56:07.155Z,9.60
2018-10-19T08:58:35.853Z,9.70
2018-10-19T09:01:04.523Z,9.80
2018-10-19T09:03:33.245Z,10.00
2018-10-19T09:06:02.305Z,10.10
2018-10-19T09:08:30.943Z,10.20
2018-10-19T09:10:59.656Z,10.30
2018-10-19T09:13:28.345Z,10.30
2018-10-19T09:15:57.020Z,10.40
2018-10-19T09:18:25.654Z,10.50
2018-10-19T09:20:54.298Z,10.50
2018-10-19T09:23:22.984Z,10.70
2018-10-19T09:25:51.637Z,10.70
2018-10-19T09:28:20.312Z,10.80
2018-10-19T09:30:49.051Z,10.90
2018-10-19T09:33:17.689Z,11.00
2018-10-19T09:35:46.389Z,11.00
2018-10-19T09:38:15.053Z,11.10
2018-10-19T09:40:43.765Z,11.20
2018-10-19T09:43:12.437Z,11.20
2018-10-19T09:45:41.214Z,11.30
2018-10-19T09:48:09.865Z,11.30
2018-10-19T09:50:38.514Z,11.30
2018-10-19T09:53:07.204Z,11.40
2018-10-19T09:55:35.856Z,11.50
2018-10-19T09:58:04.577Z,11.50
2018-10-19T10:00:38.431Z,11.50
2018-10-19T10:03:07.119Z,11.50
2018-10-19T10:05:35.829Z,11.60
2018-10-19T10:08:04.736Z,11.70
2018-10-19T10:10:33.370Z,11.80
2018-10-19T10:13:02.134Z,11.90
2018-10-19T10:15:30.773Z,12.00
2018-10-19T10:17:59.380Z,12.00
2018-10-19T10:20:28.067Z,12.10
2018-10-19T10:22:56.712Z,12.10
2018-10-19T10:25:25.456Z,12.10
2018-10-19T10:27:54.018Z,12.10
2018-10-19T10:30:22.752Z,12.20
2018-10-19T10:32:51.432Z,12.20
2018-10-19T10:35:20.044Z,12.20
2018-10-19T10:37:48.664Z,12.20
2018-10-19T10:40:17.381Z,12.20
2018-10-19T10:42:46.020Z,12.30
2018-10-19T10:45:14.627Z,12.30
2018-10-19T10:47:43.380Z,12.50
2018-10-19T10:50:12.053Z,12.50
2018-10-19T10:52:40.709Z,12.60
2018-10-19T10:55:09.457Z,12.60
2018-10-19T10:57:38.065Z,12.80
2018-10-19T11:00:07.414Z,12.80
2018-10-19T11:02:36.049Z,12.90
2018-10-19T11:05:05.059Z,13.00
2018-10-19T11:07:34.023Z,13.10
2018-10-19T11:10:02.460Z,13.20
2018-10-19T11:12:31.933Z,13.30
2018-10-19T11:15:00.624Z,13.30
2018-10-19T11:17:29.328Z,13.20
2018-10-19T11:19:57.983Z,13.20
2018-10-19T11:22:26.641Z,13.30
2018-10-19T11:24:55.326Z,13.30
2018-10-19T11:27:23.988Z,13.40
2018-10-19T11:29:52.671Z,13.20
2018-10-19T11:32:21.317Z,13.10
2018-10-19T11:34:50.069Z,13.10
2018-10-19T11:37:18.770Z,13.10
2018-10-19T11:40:29.387Z,13.10
2018-10-19T11:42:58.357Z,13.10
2018-10-19T11:45:28.468Z,13.10
2018-10-19T11:47:57.144Z,13.10
2018-10-19T11:50:25.838Z,13.10
2018-10-19T11:52:54.509Z,13.10
2018-10-19T11:55:23.165Z,13.20
2018-10-19T11:57:52.327Z,13.30
2018-10-19T12:00:20.986Z,13.40
2018-10-19T12:02:49.674Z,13.50
2018-10-19T12:05:18.344Z,13.50
2018-10-19T12:07:46.990Z,13.40
2018-10-19T12:10:15.861Z,13.30
2018-10-19T12:12:44.582Z,13.30
2018-10-19T12:15:14.495Z,13.20
2018-10-19T12:17:43.738Z,13.30
2018-10-19T12:20:13.889Z,13.30
2018-10-19T12:22:42.596Z,13.50
2018-10-19T12:25:12.192Z,13.60
2018-10-19T12:27:41.114Z,13.60
2018-10-19T12:30:10.570Z,13.50
2018-10-19T12:32:39.426Z,13.60
2018-10-19T12:35:10.094Z,13.60
2018-10-19T12:37:38.745Z,13.70
2018-10-19T12:40:08.069Z,13.80
2018-10-19T12:42:37.187Z,13.80
2018-10-19T12:45:07.553Z,13.80
2018-10-19T12:47:39.428Z,13.80
2018-10-19T12:50:08.436Z,13.90
2018-10-19T12:52:37.230Z,13.90
2018-10-19T12:55:07.584Z,13.90
2018-10-19T12:57:36.328Z,13.90
2018-10-19T13:00:06.352Z,13.80
2018-10-19T13:02:35.033Z,13.80
2018-10-19T13:05:03.690Z,13.70
2018-10-19T13:07:32.310Z,13.70
2018-10-19T13:10:00.973Z,13.50
2018-10-19T13:12:29.653Z,13.40
2018-10-19T13:14:58.324Z,13.40
2018-10-19T13:17:27.019Z,13.40
2018-10-19T13:19:55.706Z,13.40
2018-10-19T13:22:24.351Z,13.40
2018-10-19T13:24:53.043Z,13.40
2018-10-19T13:27:21.697Z,13.50
2018-10-19T13:29:50.349Z,13.70
2018-10-19T13:32:18.992Z,13.70
2018-10-19T13:34:47.651Z,13.80
2018-10-19T13:37:16.305Z,13.90
2018-10-19T13:39:44.976Z,13.90
2018-10-19T13:42:13.614Z,13.90
2018-10-19T13:44:42.293Z,13.90
2018-10-19T13:47:11.052Z,14.00
2018-10-19T13:49:39.724Z,13.90
2018-10-19T13:52:08.375Z,14.00
2018-10-19T13:54:36.982Z,14.10
2018-10-19T13:57:05.779Z,14.20
2018-10-19T13:59:34.489Z,14.30
2018-10-19T14:02:03.109Z,14.20
2018-10-19T14:04:31.798Z,14.20
2018-10-19T14:07:00.421Z,14.20
2018-10-19T14:09:29.081Z,14.30
2018-10-19T14:11:57.764Z,14.20
2018-10-19T14:14:26.454Z,14.00
2018-10-19T14:16:55.180Z,14.00
2018-10-19T14:19:23.786Z,14.00
2018-10-19T14:21:52.461Z,13.90
2018-10-19T14:24:21.085Z,13.90
2018-10-19T14:26:49.796Z,13.80
2018-10-19T14:29:18.413Z,13.80
2018-10-19T14:31:47.072Z,13.70
2018-10-19T14:34:15.750Z,13.60
2018-10-19T14:36:44.428Z,13.50
2018-10-19T14:39:13.173Z,13.40
2018-10-19T14:41:41.753Z,13.30
2018-10-19T14:44:10.437Z,13.20
2018-10-19T14:46:39.073Z,13.20
2018-10-19T14:49:07.821Z,13.00
2018-10-19T14:51:36.490Z,12.90
2018-10-19T14:54:05.333Z,12.80
2018-10-19T14:56:34.059Z,12.70
2018-10-19T14:59:02.783Z,12.70
2018-10-19T15:01:31.397Z,12.70
2018-10-19T15:04:00.157Z,12.80
2018-10-19T15:06:28.822Z,12.70
2018-10-19T15:08:57.484Z,12.70
2018-10-19T15:11:26.365Z,12.60
2018-10-19T15:13:54.846Z,12.60
2018-10-19T15:16:23.518Z,12.50
2018-10-19T15:18:52.203Z,12.40
2018-10-19T15:21:20.834Z,12.40
2018-10-19T15:23:49.471Z,12.30
2018-10-19T15:26:18.214Z,12.30
2018-10-19T15:28:46.880Z,12.30
2018-10-19T15:31:15.541Z,12.20
2018-10-19T15:33:44.199Z,12.10
2018-10-19T15:36:12.966Z,12.10
2018-10-19T15:38:41.561Z,12.00
2018-10-19T15:41:10.223Z,11.90
2018-10-19T15:43:38.924Z,11.90
2018-10-19T15:46:07.638Z,12.00
2018-10-19T15:48:36.970Z,11.90
2018-10-19T15:51:06.272Z,12.00
2018-10-19T15:53:34.931Z,11.90
2018-10-19T15:56:03.591Z,11.70
2018-10-19T15:58:32.274Z,11.60
2018-10-19T16:01:01.004Z,11.50
2018-10-19T16:03:29.707Z,11.40
2018-10-19T16:05:58.426Z,11.20
2018-10-19T16:08:27.105Z,11.20
2018-10-19T16:10:55.856Z,11.10
2018-10-19T16:13:24.522Z,11.00
2018-10-19T16:15:53.230Z,10.90
2018-10-19T16:18:21.891Z,10.70
2018-10-19T16:20:50.572Z,10.60
2018-10-19T16:23:19.488Z,10.50
2018-10-19T16:25:49.202Z,10.30
2018-10-19T16:28:17.871Z,10.20
2018-10-19T16:30:46.548Z,10.00
2018-10-19T16:33:15.276Z,9.90
2018-10-19T16:35:43.969Z,9.80
2018-10-19T16:38:12.687Z,9.70
2018-10-19T16:40:41.441Z,9.60
2018-10-19T16:43:10.201Z,9.50
2018-10-19T16:45:38.922Z,9.40
2018-10-19T16:48:08.210Z,9.30
2018-10-19T16:50:37.194Z,9.30
2018-10-19T16:53:06.019Z,9.20
2018-10-19T16:55:34.730Z,9.20
2018-10-19T16:58:03.466Z,9.10
2018-10-19T17:00:32.309Z,9.00
2018-10-19T17:03:01.450Z,9.00
2018-10-19T17:05:30.075Z,8.90
2018-10-19T17:07:58.717Z,8.80
2018-10-19T17:10:27.399Z,8.80
2018-10-19T17:12:56.177Z,8.70
2018-10-19T17:15:24.911Z,8.70
2018-10-19T17:17:53.580Z,8.70
2018-10-19T17:20:22.293Z,8.60
2018-10-19T17:22:50.925Z,8.60
2018-10-19T17:25:19.685Z,8.60
2018-10-19T17:27:48.374Z,8.50
2018-10-19T17:30:17.092Z,8.40
2018-10-19T17:32:45.761Z,8.40
2018-10-19T17:35:14.551Z,8.40
2018-10-19T17:37:43.252Z,8.30
2018-10-19T17:40:11.797Z,8.30
2018-10-19T17:42:40.477Z,8.20
2018-10-19T17:45:10.445Z,8.20
2018-10-19T17:47:39.251Z,8.20
2018-10-19T17:50:07.990Z,8.10
2018-10-19T17:52:36.682Z,8.10
2018-10-19T17:55:07.645Z,8.10
2018-10-19T17:57:36.557Z,8.10
2018-10-19T18:00:06.535Z,8.10
2018-10-19T18:02:35.178Z,8.00
2018-10-19T18:05:03.965Z,8.00
2018-10-19T18:07:32.701Z,8.00
2018-10-19T18:10:01.314Z,7.90
2018-10-19T18:12:29.954Z,7.90
2018-10-19T18:14:58.639Z,7.90
2018-10-19T18:17:28.252Z,7.80
2018-10-19T18:19:56.874Z,7.80
2018-10-19T18:22:25.709Z,7.80
2018-10-19T18:24:54.154Z,7.80
2018-10-19T18:27:22.789Z,7.70
2018-10-19T18:29:51.467Z,7.80
2018-10-19T18:32:20.129Z,7.70
2018-10-19T18:34:48.932Z,7.70
2018-10-19T18:37:18.036Z,7.70
2018-10-19T18:39:47.301Z,7.70
2018-10-19T18:42:16.645Z,7.60
2018-10-19T18:44:45.830Z,7.60
2018-10-19T18:47:14.637Z,7.50
2018-10-19T18:49:43.300Z,7.50
2018-10-19T18:52:13.444Z,7.50
2018-10-19T18:54:42.241Z,7.40
2018-10-19T18:57:10.861Z,7.30
2018-10-19T18:59:39.522Z,7.20
2018-10-19T19:02:09.977Z,7.20
2018-10-19T19:04:40.713Z,7.20
2018-10-19T19:07:11.181Z,7.20
2018-10-19T19:09:41.408Z,7.20
2018-10-19T19:12:10.352Z,7.10
2018-10-19T19:14:39.023Z,7.10
2018-10-19T19:17:07.944Z,7.00
2018-10-19T19:19:36.709Z,7.00
2018-10-19T19:22:07.186Z,7.00
2018-10-19T19:24:41.373Z,7.00
2018-10-19T19:27:10.069Z,6.90
2018-10-19T19:29:40.308Z,6.90
2018-10-19T19:32:09.304Z,6.90
2018-10-19T19:34:38.013Z,6.90
2018-10-19T19:37:07.902Z,6.80
2018-10-19T19:39:37.010Z,6.80
2018-10-19T19:42:11.724Z,6.70
2018-10-19T19:44:40.464Z,6.70
2018-10-19T19:47:13.357Z,6.60
2018-10-19T19:49:42.133Z,6.60
2018-10-19T19:52:10.877Z,6.50
2018-10-19T19:54:39.583Z,6.50
2018-10-19T19:57:08.307Z,6.40
2018-10-19T19:59:37.099Z,6.40
2018-10-19T20:02:05.863Z,6.40
2018-10-19T20:04:34.489Z,6.30
2018-10-19T20:07:03.154Z,6.30
2018-10-19T20:09:31.721Z,6.30
2018-10-19T20:12:00.460Z,6.30
2018-10-19T20:14:29.021Z,6.30
2018-10-19T20:16:57.733Z,6.20
2018-10-19T20:19:26.357Z,6.20
2018-10-19T20:21:54.958Z,6.20
2018-10-19T20:24:23.630Z,6.20
2018-10-19T20:26:52.240Z,6.20
2018-10-19T20:29:20.877Z,6.20
2018-10-19T20:31:49.461Z,6.20
2018-10-19T20:34:18.113Z,6.20
2018-10-19T20:36:46.780Z,6.20
2018-10-19T20:39:15.365Z,6.10
2018-10-19T20:41:44.048Z,6.20
2018-10-19T20:44:12.741Z,6.10
2018-10-19T20:46:41.396Z,6.10
2018-10-19T20:49:10.012Z,6.10
2018-10-19T20:51:38.625Z,6.10
2018-10-19T20:54:07.322Z,6.00
2018-10-19T20:56:36.017Z,6.00
2018-10-19T20:59:04.817Z,6.00
2018-10-19T21:01:33.444Z,6.00
2018-10-19T21:04:02.081Z,6.00
2018-10-19T21:06:30.725Z,5.90
2018-10-19T21:08:59.308Z,5.90
2018-10-19T21:11:27.974Z,5.90
2018-10-19T21:13:56.617Z,5.80
2018-10-19T21:16:25.317Z,5.80
2018-10-19T21:18:53.934Z,5.70
2018-10-19T21:21:22.602Z,5.70
2018-10-19T21:23:51.261Z,5.70
2018-10-19T21:26:20.001Z,5.70
2018-10-19T21:28:48.584Z,5.60
2018-10-19T21:31:17.218Z,5.60
2018-10-19T21:33:45.831Z,5.60
2018-10-19T21:36:14.455Z,5.60
2018-10-19T21:38:43.083Z,5.50
2018-10-19T21:41:11.811Z,5.50
2018-10-19T21:43:40.466Z,5.50
2018-10-19T21:46:09.128Z,5.40
2018-10-19T21:48:37.787Z,5.40
2018-10-19T21:51:06.736Z,5.40
2018-10-19T21:53:35.344Z,5.50
2018-10-19T21:56:04.079Z,5.40
2018-10-19T21:58:32.727Z,5.50
2018-10-19T22:01:01.713Z,5.50
2018-10-19T22:03:30.347Z,5.50
2018-10-19T22:05:58.979Z,5.50
2018-10-19T22:08:27.633Z,5.50
2018-10-19T22:10:56.452Z,5.50
2018-10-19T22:13:25.040Z,5.60
2018-10-19T22:15:53.780Z,5.50
2018-10-19T22:18:22.414Z,5.60
2018-10-19T22:20:51.065Z,5.60
2018-10-19T22:23:19.826Z,5.50
2018-10-19T22:25:48.401Z,5.50
2018-10-19T22:28:17.097Z,5.50
2018-10-19T22:30:45.780Z,5.40
2018-10-19T22:33:14.486Z,5.40
2018-10-19T22:35:43.154Z,5.40
2018-10-19T22:38:11.836Z,5.30
2018-10-19T22:40:40.508Z,5.30
2018-10-19T22:43:09.281Z,5.30
2018-10-19T22:45:37.934Z,5.20
2018-10-19T22:48:06.880Z,5.20
2018-10-19T22:50:35.572Z,5.20
2018-10-19T22:53:04.365Z,5.10
2018-10-19T22:55:32.975Z,5.10
2018-10-19T22:58:01.638Z,5.00
2018-10-19T23:00:30.265Z,5.00
2018-10-19T23:02:58.954Z,4.90
2018-10-19T23:05:27.608Z,4.90
2018-10-19T23:07:56.306Z,4.90
2018-10-19T23:10:24.960Z,4.90
2018-10-19T23:12:53.561Z,4.90
2018-10-19T23:15:22.227Z,4.90
2018-10-19T23:17:50.923Z,4.80
2018-10-19T23:20:19.543Z,4.80
2018-10-19T23:22:48.172Z,4.70
2018-10-19T23:25:16.859Z,4.60
2018-10-19T23:27:45.495Z,4.60
2018-10-19T23:30:14.120Z,4.50
2018-10-19T23:32:42.875Z,4.50
2018-10-19T23:35:11.564Z,4.50
2018-10-19T23:37:40.237Z,4.50
2018-10-19T23:40:08.848Z,4.50
2018-10-19T23:42:37.476Z,4.40
2018-10-19T23:45:06.943Z,4.40
2018-10-19T23:47:35.560Z,4.40
2018-10-19T23:50:04.277Z,4.30
2018-10-19T23:52:32.946Z,4.30
2018-10-19T23:55:01.716Z,4.20
2018-10-19T23:57:30.548Z,4.20
2018-10-19T23:59:59.280Z,4.20
